Time;durP1;ratioP1;P1;durP2;ratioP2;P2;SDS_P1;SDS_P2;PMS_P1;PMS_P2;Temp;Humidity;BMP_temperature;BMP_pressure;BME280_temperature;BME280_humidity;BME280_pressure;Samples;Min_cycle;Max_cycle;Signal;HPM_P1;HPM_P2
2021/03/12 00:00:43;;;;;;;13.48;3.67;;;5.10;99.90;;;;;;4810696;29;20058;-85
2021/03/12 00:03:16;;;;;;;12.13;3.35;;;3.90;99.90;;;;;;4814128;29;20423;-85
2021/03/12 00:05:46;;;;;;;9.10;3.35;;;;;;;;;;4809595;29;20494;-85
2021/03/12 00:08:14;;;;;;;10.95;4.68;;;;;;;;;;4820525;29;20062;-85
2021/03/12 00:10:42;;;;;;;12.85;3.58;;;5.30;99.90;;;;;;4811099;29;20053;-85
2021/03/12 00:13:11;;;;;;;10.32;4.00;;;;;;;;;;4837613;29;20054;-86
2021/03/12 00:15:39;;;;;;;11.10;3.03;;;;;;;;;;4826894;29;20057;-86
2021/03/12 00:18:07;;;;;;;17.65;4.40;;;;;;;;;;4812426;29;20057;-86
2021/03/12 00:20:37;;;;;;;7.18;3.38;;;5.40;99.90;;;;;;4788324;29;20058;-86
2021/03/12 00:23:05;;;;;;;7.95;2.97;;;;;;;;;;4808230;29;20064;-86
2021/03/12 00:25:43;;;;;;;8.43;3.15;;;5.40;99.90;;;;;;4826398;29;20046;-85
2021/03/12 00:28:12;;;;;;;7.75;2.58;;;5.40;99.90;;;;;;4810339;29;20042;-86
2021/03/12 00:30:42;;;;;;;10.68;2.70;;;;;;;;;;4813355;29;20058;-86
2021/03/12 00:33:23;;;;;;;5.10;2.72;;;5.40;99.90;;;;;;4841197;29;20061;-84
2021/03/12 00:35:51;;;;;;;;;;;5.40;99.90;;;;;;4836501;29;20060;-85
2021/03/12 00:38:19;;;;;;;11.23;4.05;;;;;;;;;;4810193;29;19932;-86
2021/03/12 00:40:59;;;;;;;19.63;5.47;;;5.40;99.90;;;;;;4822881;29;20059;-86
2021/03/12 00:43:33;;;;;;;13.27;2.90;;;;;;;;;;4835315;29;20153;-87
2021/03/12 00:46:09;;;;;;;9.75;2.72;;;5.50;99.90;;;;;;4824431;29;20050;-85
2021/03/12 00:48:38;;;;;;;12.48;2.30;;;;;;;;;;4826691;29;20597;-85
2021/03/12 00:51:08;;;;;;;12.77;4.65;;;;;;;;;;4821898;29;20033;-86
2021/03/12 00:54:00;;;;;;;10.88;2.95;;;;;;;;;;4836349;29;20519;-86
2021/03/12 00:56:30;;;;;;;9.05;1.73;;;5.60;99.90;;;;;;4827410;29;20054;-86
2021/03/12 00:59:01;;;;;;;10.05;3.35;;;;;;;;;;4812082;29;20133;-86
2021/03/12 01:01:34;;;;;;;16.70;3.53;;;;;;;;;;4811256;29;20058;-84
2021/03/12 01:04:03;;;;;;;9.35;2.42;;;;;;;;;;4841212;29;20072;-86
2021/03/12 01:06:30;;;;;;;10.02;2.90;;;;;;;;;;4814395;29;20053;-85
2021/03/12 01:09:04;;;;;;;12.68;2.83;;;5.50;99.90;;;;;;4842278;29;20069;-86
2021/03/12 01:11:33;;;;;;;;;;;5.50;99.90;;;;;;4830867;29;20054;-85
2021/03/12 01:14:03;;;;;;;6.63;1.60;;;;;;;;;;4843092;29;19924;-85
2021/03/12 01:16:36;;;;;;;10.82;4.25;;;;;;;;;;4828712;29;20050;-86
2021/03/12 01:19:06;;;;;;;9.85;3.53;;;;;;;;;;4810229;29;20065;-85
2021/03/12 01:21:36;;;;;;;7.70;3.83;;;;;;;;;;4805968;29;20046;-85
2021/03/12 01:24:13;;;;;;;14.00;2.85;;;5.40;99.90;;;;;;4829922;29;20057;-88
2021/03/12 01:27:05;;;;;;;5.75;3.65;;;;;;;;;;4828138;29;20050;-85
2021/03/12 01:29:41;;;;;;;13.93;3.83;;;;;;;;;;4835550;29;20612;-83
2021/03/12 01:32:16;;;;;;;17.40;7.53;;;;;;;;;;4827580;29;20058;-85
2021/03/12 01:34:53;;;;;;;7.43;3.00;;;5.50;99.90;;;;;;4821417;29;20064;-84
2021/03/12 01:37:22;;;;;;;8.33;3.10;;;;;;;;;;4838660;29;20064;-85
2021/03/12 01:39:56;;;;;;;11.18;5.00;;;;;;;;;;4805481;29;20085;-86
2021/03/12 01:42:33;;;;;;;8.13;4.45;;;;;;;;;;4824197;29;20069;-85
2021/03/12 01:45:06;;;;;;;12.00;2.20;;;5.40;99.90;;;;;;4821130;29;20059;-85
2021/03/12 01:47:34;;;;;;;11.80;5.35;;;;;;;;;;4803038;29;20055;-85
2021/03/12 01:50:04;;;;;;;17.17;5.10;;;5.50;99.90;;;;;;4794633;29;20418;-85
2021/03/12 01:52:32;;;;;;;14.20;4.50;;;;;;;;;;4819181;29;20050;-84
2021/03/12 01:55:00;;;;;;;2.25;1.85;;;;;;;;;;4817959;29;20057;-85
2021/03/12 01:57:29;;;;;;;16.67;3.42;;;;;;;;;;4824771;29;20065;-84
2021/03/12 02:00:14;;;;;;;4.40;2.28;;;;;;;;;;4814217;29;20422;-84
2021/03/12 02:02:44;;;;;;;13.90;4.78;;;;;;;;;;4827635;29;20058;-87
2021/03/12 02:05:32;;;;;;;9.60;2.67;;;;;;;;;;4842790;29;20050;-87
2021/03/12 02:08:00;;;;;;;16.88;3.90;;;;;;;;;;4849899;29;20062;-85
2021/03/12 02:10:35;;;;;;;19.05;4.15;;;5.60;99.90;;;;;;4833822;29;20072;-86
2021/03/12 02:13:36;;;;;;;11.10;4.03;;;5.60;99.90;;;;;;4841949;29;20062;-86
2021/03/12 02:16:11;;;;;;;14.35;4.10;;;5.70;99.90;;;;;;4808466;29;20066;-85
2021/03/12 02:19:00;;;;;;;7.60;2.58;;;5.70;99.90;;;;;;4810882;29;20057;-86
2021/03/12 02:21:43;;;;;;;11.35;4.45;;;5.80;99.90;;;;;;4819804;29;20092;-86
2021/03/12 02:24:24;;;;;;;22.00;4.43;;;5.80;99.90;;;;;;4813548;29;20060;-85
2021/03/12 02:27:12;;;;;;;15.07;5.07;;;5.90;99.90;;;;;;4836886;29;20047;-86
2021/03/12 02:29:49;;;;;;;8.98;3.42;;;;;;;;;;4797091;29;20050;-86
2021/03/12 02:32:30;;;;;;;14.52;4.55;;;5.90;99.90;;;;;;4818292;29;20054;-85
2021/03/12 02:35:03;;;;;;;22.42;5.75;;;5.90;99.90;;;;;;4820735;29;20681;-85
2021/03/12 02:37:33;;;;;;;7.53;2.70;;;5.90;99.90;;;;;;4834802;29;20061;-85
2021/03/12 02:40:06;;;;;;;7.63;3.78;;;5.90;99.90;;;;;;4823670;29;20065;-84
2021/03/12 02:42:42;;;;;;;15.23;3.53;;;6.00;99.90;;;;;;4820294;29;20050;-85
2021/03/12 02:45:16;;;;;;;12.27;4.05;;;5.90;99.90;;;;;;4835869;29;20342;-84
2021/03/12 02:47:45;;;;;;;13.15;2.88;;;;;;;;;;4846527;29;20061;-85
2021/03/12 02:50:17;;;;;;;16.75;4.07;;;;;;;;;;4835341;29;20058;-85
2021/03/12 02:52:46;;;;;;;15.88;4.50;;;6.00;99.90;;;;;;4844956;29;20058;-85
2021/03/12 02:55:19;;;;;;;11.75;4.93;;;;;;;;;;4800707;29;20061;-85
2021/03/12 02:57:54;;;;;;;20.30;5.18;;;;;;;;;;4841749;29;20061;-86
2021/03/12 03:00:23;;;;;;;13.30;3.20;;;5.90;99.90;;;;;;4846975;29;20056;-85
2021/03/12 03:03:10;;;;;;;11.98;2.92;;;;;;;;;;4792655;29;20061;-85
2021/03/12 03:05:57;;;;;;;17.08;3.95;;;;;;;;;;4807972;29;20057;-85
2021/03/12 03:08:25;;;;;;;11.43;3.95;;;;;;;;;;4852583;29;20573;-84
2021/03/12 03:10:56;;;;;;;26.67;4.30;;;5.90;99.90;;;;;;4828127;29;20065;-85
2021/03/12 03:13:37;;;;;;;18.63;4.25;;;5.90;99.90;;;;;;4820077;29;20065;-85
2021/03/12 03:16:11;;;;;;;15.60;3.85;;;5.90;99.90;;;;;;4815973;29;20525;-86
2021/03/12 03:18:40;;;;;;;12.23;3.65;;;;;;;;;;4814172;29;20053;-85
2021/03/12 03:21:09;;;;;;;10.05;3.70;;;;;;;;;;4823027;29;20065;-87
2021/03/12 03:23:40;;;;;;;13.77;2.75;;;;;;;;;;4808632;29;20065;-86
2021/03/12 03:26:08;;;;;;;15.32;5.03;;;;;;;;;;4827864;29;20061;-83
2021/03/12 03:28:40;;;;;;;18.42;3.95;;;;;;;;;;4841083;29;20078;-85
2021/03/12 03:31:08;;;;;;;7.65;2.63;;;;;;;;;;4812985;29;20054;-84
2021/03/12 03:33:37;;;;;;;7.70;3.67;;;;;;;;;;4825324;29;20058;-85
2021/03/12 03:36:09;;;;;;;13.15;3.42;;;;;;;;;;4836424;29;20050;-84
2021/03/12 03:38:38;;;;;;;20.35;2.65;;;;;;;;;;4819775;29;20458;-83
2021/03/12 03:41:11;;;;;;;7.78;4.15;;;6.00;99.90;;;;;;4830932;29;20057;-85
2021/03/12 03:43:43;;;;;;;13.75;5.50;;;6.10;99.90;;;;;;4828091;29;20415;-85
2021/03/12 03:46:17;;;;;;;10.63;4.28;;;6.00;99.90;;;;;;4828117;29;20066;-86
2021/03/12 03:48:49;;;;;;;18.95;5.35;;;5.90;99.90;;;;;;4829525;29;20053;-84
2021/03/12 03:51:26;;;;;;;18.50;4.05;;;;;;;;;;4828694;29;20057;-84
2021/03/12 03:53:55;;;;;;;18.90;3.78;;;;;;;;;;4831260;29;20062;-86
2021/03/12 03:56:23;;;;;;;11.43;3.30;;;;;;;;;;4815459;29;20057;-85
2021/03/12 03:58:52;;;;;;;18.90;5.40;;;;;;;;;;4836713;29;20062;-85
2021/03/12 04:01:22;;;;;;;9.88;3.92;;;5.80;99.90;;;;;;4811839;29;20053;-85
2021/03/12 04:03:54;;;;;;;17.50;6.68;;;;;;;;;;4844634;29;20066;-86
2021/03/12 04:06:22;;;;;;;13.35;3.38;;;;;;;;;;4811972;29;20802;-83
2021/03/12 04:08:51;;;;;;;29.55;6.20;;;;;;;;;;4828776;29;20057;-87
2021/03/12 04:11:19;;;;;;;8.75;2.75;;;;;;;;;;4828864;29;20058;-87
2021/03/12 04:13:52;;;;;;;8.17;4.50;;;5.70;99.90;;;;;;4825719;29;20062;-85
2021/03/12 04:16:23;;;;;;;23.75;4.35;;;;;;;;;;4813608;29;20301;-87
2021/03/12 04:18:51;;;;;;;12.60;3.30;;;;;;;;;;4805049;29;20042;-84
2021/03/12 04:21:19;;;;;;;8.68;4.13;;;;;;;;;;4825814;29;20058;-87
2021/03/12 04:23:55;;;;;;;11.70;5.55;;;5.70;99.90;;;;;;4834945;29;20046;-86
2021/03/12 04:26:24;;;;;;;23.35;6.07;;;;;;;;;;4828510;29;20077;-85
2021/03/12 04:28:52;;;;;;;19.42;3.60;;;;;;;;;;4828499;29;20049;-86
2021/03/12 04:31:21;;;;;;;22.67;4.75;;;;;;;;;;4825459;29;20054;-85
2021/03/12 04:33:50;;;;;;;14.65;3.08;;;5.90;99.90;;;;;;4828075;29;20054;-84
2021/03/12 04:36:18;;;;;;;17.38;4.97;;;;;;;;;;4822830;29;20050;-86
2021/03/12 04:38:48;;;;;;;25.88;7.53;;;;;;;;;;4839021;29;20058;-86
2021/03/12 04:41:16;;;;;;;24.85;7.32;;;5.90;99.90;;;;;;4828774;29;20056;-87
2021/03/12 04:43:44;;;;;;;24.92;6.28;;;;;;;;;;4837948;29;20057;-87
2021/03/12 04:46:13;;;;;;;19.83;5.97;;;;;;;;;;4840617;29;20064;-87
2021/03/12 04:48:47;;;;;;;20.17;3.85;;;;;;;;;;4821123;29;20069;-86
2021/03/12 04:51:18;;;;;;;22.35;5.90;;;;;;;;;;4824538;29;20065;-86
2021/03/12 04:53:47;;;;;;;15.85;7.25;;;;;;;;;;4854032;29;20069;-86
2021/03/12 04:56:18;;;;;;;22.95;8.35;;;;;;;;;;4830823;29;20057;-84
2021/03/12 04:58:46;;;;;;;17.23;5.65;;;;;;;;;;4823470;29;20062;-85
2021/03/12 05:01:15;;;;;;;18.38;3.00;;;;;;;;;;4837510;29;20050;-85
2021/03/12 05:03:43;;;;;;;11.85;3.88;;;;;;;;;;4846468;29;20068;-87
2021/03/12 05:06:11;;;;;;;16.70;4.20;;;;;;;;;;4823773;29;20052;-84
2021/03/12 05:08:53;;;;;;;16.25;6.50;;;6.40;99.90;;;;;;4829902;29;20057;-86
2021/03/12 05:11:25;;;;;;;12.93;4.25;;;6.40;99.90;;;;;;4831762;29;20065;-85
2021/03/12 05:14:01;;;;;;;21.83;4.43;;;;;;;;;;4829406;29;20058;-84
2021/03/12 05:16:37;;;;;;;15.18;4.05;;;;;;;;;;4835089;29;20072;-84
2021/03/12 05:19:05;;;;;;;15.98;4.18;;;;;;;;;;4833177;29;20055;-85
2021/03/12 05:21:33;;;;;;;12.85;5.78;;;;;;;;;;4815857;29;20054;-87
2021/03/12 05:24:04;;;;;;;34.28;6.90;;;;;;;;;;4841619;29;20061;-84
2021/03/12 05:26:33;;;;;;;14.75;4.78;;;;;;;;;;4837572;29;20075;-85
2021/03/12 05:29:01;;;;;;;10.85;4.13;;;;;;;;;;4819330;29;20429;-85
2021/03/12 05:31:30;;;;;;;15.23;6.38;;;;;;;;;;4810729;29;20046;-85
2021/03/12 05:33:58;;;;;;;13.27;4.40;;;;;;;;;;4852370;29;20054;-85
2021/03/12 05:36:28;;;;;;;24.67;7.47;;;;;;;;;;4838677;29;20065;-84
2021/03/12 05:38:56;;;;;;;22.98;5.57;;;;;;;;;;4815530;29;20058;-85
2021/03/12 05:41:27;;;;;;;;;;;6.50;99.90;;;;;;4829270;29;20188;-85
2021/03/12 05:43:56;;;;;;;31.83;7.90;;;6.30;99.90;;;;;;4796036;29;19939;-85
2021/03/12 05:46:24;;;;;;;15.50;3.95;;;;;;;;;;4802398;29;20057;-85
2021/03/12 05:48:53;;;;;;;23.58;4.05;;;6.40;99.90;;;;;;4808590;29;20054;-86
2021/03/12 05:51:23;;;;;;;26.58;3.80;;;;;;;;;;4832532;29;20065;-86
2021/03/12 05:53:53;;;;;;;14.70;5.28;;;;;;;;;;4811549;29;20050;-86
2021/03/12 05:56:21;;;;;;;8.05;2.75;;;;;;;;;;4826546;29;20500;-83
2021/03/12 05:58:59;;;;;;;7.93;3.72;;;6.30;99.90;;;;;;4805449;29;20062;-85
2021/03/12 06:01:32;;;;;;;9.93;3.47;;;6.20;99.90;;;;;;4833405;29;20431;-83
2021/03/12 06:04:00;;;;;;;14.88;2.65;;;;;;;;;;4830519;29;20050;-87
2021/03/12 06:06:30;;;;;;;20.92;6.68;;;;;;;;;;4809935;29;20077;-84
2021/03/12 06:09:03;;;;;;;18.48;4.15;;;6.10;99.90;;;;;;4827210;29;20061;-85
2021/03/12 06:11:32;;;;;;;20.65;9.15;;;6.20;99.90;;;;;;4834930;29;20057;-84
2021/03/12 06:14:00;;;;;;;35.78;7.65;;;;;;;;;;4829548;29;20069;-84
2021/03/12 06:17:00;;;;;;;21.70;6.97;;;;;;;;;;4819907;29;20530;-84
2021/03/12 06:19:33;;;;;;;14.23;4.00;;;;;;;;;;4823124;29;20058;-84
2021/03/12 06:22:17;;;;;;;19.15;6.25;;;;;;;;;;4828514;29;20053;-86
2021/03/12 06:24:49;;;;;;;19.05;5.53;;;;;;;;;;4821382;29;20054;-85
2021/03/12 06:27:48;;;;;;;19.48;3.20;;;;;;;;;;4823656;29;20567;-84
2021/03/12 06:31:26;;;;;;;15.00;4.03;;;6.20;99.90;;;;;;4820902;29;20058;-85
2021/03/12 06:34:22;;;;;;;17.50;4.47;;;;;;;;;;4835435;29;20050;-84
2021/03/12 06:37:27;;;;;;;14.43;3.25;;;6.20;99.90;;;;;;4463852;29;9999645;-85
2021/03/12 06:40:17;;;;;;;13.40;3.17;;;;;;;;;;4830586;29;20061;-85
2021/03/12 06:43:01;;;;;;;19.25;3.17;;;;;;;;;;4829376;29;20054;-86
2021/03/12 06:45:31;;;;;;;12.15;3.63;;;6.40;99.90;;;;;;4829837;29;20058;-85
2021/03/12 06:48:15;;;;;;;11.88;3.15;;;6.40;99.90;;;;;;4828530;29;20058;-84
2021/03/12 06:50:44;;;;;;;12.30;4.05;;;;;;;;;;4806337;29;20522;-84
2021/03/12 06:53:39;;;;;;;4.68;2.83;;;6.50;99.90;;;;;;4799703;29;20054;-84
2021/03/12 06:56:08;;;;;;;10.88;2.45;;;6.40;99.90;;;;;;4830073;29;20050;-87
2021/03/12 06:59:02;;;;;;;7.45;3.90;;;6.50;99.90;;;;;;4818500;29;20062;-86
2021/03/12 07:01:57;;;;;;;12.20;3.75;;;;;;;;;;4822190;29;20069;-84
2021/03/12 07:04:29;;;;;;;6.93;1.92;;;;;;;;;;4819086;29;20062;-84
2021/03/12 07:07:35;;;;;;;17.15;5.78;;;6.50;99.90;;;;;;4823948;29;20517;-86
2021/03/12 07:10:10;;;;;;;6.63;2.58;;;;;;;;;;4814387;29;20066;-84
2021/03/12 07:13:12;;;;;;;13.50;3.22;;;;;;;;;;4820426;29;20058;-88
2021/03/12 07:15:45;;;;;;;5.30;2.35;;;;;;;;;;4812423;29;20046;-86
2021/03/12 07:18:25;;;;;;;20.10;5.10;;;;;;;;;;4829305;29;20058;-85
2021/03/12 07:21:29;;;;;;;12.57;2.80;;;6.80;99.90;;;;;;4821591;29;20050;-86
2021/03/12 07:24:03;;;;;;;5.45;2.92;;;6.90;99.90;;;;;;4805555;29;20062;-86
2021/03/12 07:26:39;;;;;;;4.95;2.08;;;;;;;;;;4820837;29;20394;-86
2021/03/12 07:29:11;;;;;;;8.98;3.28;;;;;;;;;;4824365;29;20046;-85
2021/03/12 07:32:07;;;;;;;17.73;4.82;;;6.90;99.90;;;;;;4831566;29;20418;-86
2021/03/12 07:34:40;;;;;;;5.57;2.63;;;6.90;99.90;;;;;;4827595;29;20069;-84
2021/03/12 07:37:26;;;;;;;24.65;4.40;;;6.90;99.90;;;;;;4836108;29;20053;-90
2021/03/12 07:39:56;;;;;;;14.52;3.10;;;;;;;;;;4824684;29;20058;-87
2021/03/12 07:42:30;;;;;;;14.27;5.47;;;;;;;;;;4808329;29;20061;-87
2021/03/12 07:45:24;;;;;;;10.60;3.25;;;6.90;99.90;;;;;;4818733;29;20057;-89
2021/03/12 07:48:12;;;;;;;19.83;7.40;;;7.00;99.90;;;;;;4838223;29;20510;-89
2021/03/12 07:51:16;;;;;;;7.35;2.83;;;7.10;99.90;;;;;;4837547;29;20072;-84
2021/03/12 07:53:56;;;;;;;13.82;3.30;;;7.20;99.90;;;;;;4811646;29;20061;-89
2021/03/12 07:56:43;;;;;;;12.75;4.32;;;;;;;;;;4793763;29;20053;-90
2021/03/12 07:59:49;;;;;;;10.75;3.90;;;;;;;;;;4825003;29;20058;-88
2021/03/12 08:02:51;;;;;;;11.00;4.45;;;;;;;;;;4816813;29;20050;-86
2021/03/12 08:05:44;;;;;;;6.13;3.17;;;7.60;99.90;;;;;;4818723;29;20057;-91
2021/03/12 08:08:55;;;;;;;24.17;4.05;;;;;;;;;;4835056;29;20049;-88
2021/03/12 08:11:56;;;;;;;24.98;6.03;;;7.80;99.90;;;;;;4844674;29;20049;-88
2021/03/12 08:15:11;;;;;;;22.52;3.67;;;;;;;;;;4828403;29;20054;-89
2021/03/12 08:18:02;;;;;;;17.35;4.82;;;;;;;;;;4828613;29;20058;-88
2021/03/12 08:20:41;;;;;;;13.23;4.20;;;;;;;;;;4819205;29;20060;-88
2021/03/12 08:23:17;;;;;;;13.02;4.75;;;;;;;;;;4836357;29;20054;-85
2021/03/12 08:25:55;;;;;;;18.52;6.22;;;;;;;;;;4826300;29;20082;-88
2021/03/12 08:28:50;;;;;;;14.35;4.22;;;;;;;;;;4835466;29;20149;-90
2021/03/12 08:32:07;;;;;;;18.05;4.47;;;;;;;;;;4838653;29;20054;-88
2021/03/12 08:34:48;;;;;;;7.90;2.90;;;;;;;;;;4824819;29;20062;-90
2021/03/12 08:37:39;;;;;;;16.65;3.97;;;;;;;;;;4824669;29;20068;-89
2021/03/12 08:40:20;;;;;;;53.50;8.25;;;;;;;;;;4827856;29;20568;-88
2021/03/12 08:43:17;;;;;;;23.17;5.25;;;;;;;;;;4823445;29;20050;-89
2021/03/12 08:46:03;;;;;;;13.73;3.25;;;;;;;;;;4842880;29;20053;-88
2021/03/12 08:49:07;;;;;;;15.05;3.40;;;8.70;99.90;;;;;;4846842;29;20064;-89
2021/03/12 08:51:38;;;;;;;18.30;5.32;;;8.90;99.90;;;;;;4833379;29;20074;-90
2021/03/12 08:54:30;;;;;;;19.48;5.78;;;;;;;;;;4830452;29;20089;-91
2021/03/12 08:57:21;;;;;;;17.08;4.15;;;;;;;;;;4805403;29;20518;-88
2021/03/12 09:00:15;;;;;;;12.13;3.30;;;;;;;;;;4830772;29;20065;-90
2021/03/12 09:03:14;;;;;;;22.08;5.20;;;;;;;;;;4857394;29;20073;-91
2021/03/12 09:06:03;;;;;;;17.83;7.43;;;8.80;99.90;;;;;;4827522;29;20050;-89
2021/03/12 09:09:09;;;;;;;17.20;3.67;;;8.80;99.90;;;;;;4833456;29;20068;-92
2021/03/12 09:11:57;;;;;;;12.85;3.45;;;;;;;;;;4834848;29;20062;-89
2021/03/12 09:14:40;;;;;;;20.35;4.45;;;;;;;;;;4830345;29;20054;-88
2021/03/12 09:17:11;;;;;;;15.25;5.68;;;;;;;;;;4834719;29;20051;-88
2021/03/12 09:19:54;;;;;;;18.80;5.25;;;;;;;;;;4836296;29;20064;-89
2021/03/12 09:22:32;;;;;;;29.25;5.32;;;;;;;;;;4823145;29;20046;-89
2021/03/12 09:25:05;;;;;;;12.27;3.50;;;;;;;;;;4823843;29;20049;-87
2021/03/12 09:28:04;;;;;;;14.68;4.50;;;8.40;99.90;;;;;;4831162;29;20058;-89
2021/03/12 09:30:48;;;;;;;13.93;3.53;;;;;;;;;;4828360;29;20074;-90
2021/03/12 09:36:51;;;;;;;12.95;3.65;;;;;;;;;;4809697;29;20053;-90
2021/03/12 09:40:23;;;;;;;17.38;3.53;;;;;;;;;;4789147;29;20074;-91
2021/03/12 09:46:38;;;;;;;10.75;3.78;;;;;;;;;;5262082;23;20057;-90
2021/03/12 09:49:37;;;;;;;17.42;4.93;;;;;;;;;;4828861;29;20035;-89
2021/03/12 09:52:49;;;;;;;9.88;2.28;;;8.30;99.90;;;;;;4855685;29;20037;-90
2021/03/12 09:55:40;;;;;;;18.63;3.45;;;;;;;;;;4832391;29;20494;-90
2021/03/12 09:58:35;;;;;;;9.55;2.58;;;;;;;;;;4818302;29;20050;-90
2021/03/12 10:01:41;;;;;;;11.52;2.80;;;;;;;;;;4848155;29;20053;-92
2021/03/12 10:04:48;;;;;;;9.80;2.80;;;;;;;;;;4864602;29;20062;-91
2021/03/12 10:08:05;;;;;;;8.43;4.07;;;;;;;;;;4850336;29;20039;-90
2021/03/12 10:11:15;;;;;;;11.95;2.70;;;;;;;;;;4876954;29;20071;-89
2021/03/12 10:14:59;;;;;;;12.48;2.63;;;8.80;99.90;;;;;;4843379;29;20053;-90
2021/03/12 10:17:47;;;;;;;12.48;3.72;;;;;;;;;;4856309;29;20054;-90
2021/03/12 10:20:47;;;;;;;13.18;4.22;;;;;;;;;;4851739;29;20051;-93
2021/03/12 10:31:38;;;;;;;5.72;1.85;;;;;;;;;;4855772;29;20034;-92
2021/03/12 10:34:15;;;;;;;13.88;2.35;;;;;;;;;;4849394;29;20058;-90
2021/03/12 10:37:11;;;;;;;8.32;2.42;;;;;;;;;;4847837;29;20034;-90
2021/03/12 10:40:07;;;;;;;7.15;1.85;;;;;;;;;;4826991;29;20037;-92
2021/03/12 10:42:39;;;;;;;7.03;1.65;;;;;;;;;;4849624;29;20494;-91
2021/03/12 10:46:04;;;;;;;8.55;2.25;;;;;;;;;;4849328;29;20064;-92
2021/03/12 10:49:31;;;;;;;8.48;2.85;;;;;;;;;;4837555;29;20038;-89
2021/03/12 10:52:43;;;;;;;4.45;2.28;;;9.50;99.90;;;;;;4871912;29;20057;-91
2021/03/12 10:55:30;;;;;;;9.80;3.47;;;;;;;;;;4824448;29;20061;-90
2021/03/12 10:58:46;;;;;;;6.53;1.83;;;;;;;;;;4834833;29;20409;-91
2021/03/12 11:01:56;;;;;;;11.90;3.55;;;;;;;;;;4832061;29;20060;-90
2021/03/12 11:04:44;;;;;;;6.22;2.20;;;;;;;;;;4808812;29;20044;-90
2021/03/12 11:11:07;;;;;;;14.95;3.17;;;;;;;;;;4835406;29;20065;-90
2021/03/12 11:14:03;;;;;;;2.13;1.58;;;;;;;;;;4846353;29;20046;-92
2021/03/12 11:16:48;;;;;;;7.50;1.77;;;;;;;;;;4854037;29;20073;-91
2021/03/12 11:19:21;;;;;;;14.20;2.17;;;;;;;;;;4852081;29;20054;-90
2021/03/12 11:22:12;;;;;;;5.63;1.70;;;;;;;;;;4824270;29;20050;-91
2021/03/12 11:25:03;;;;;;;11.07;2.42;;;;;;;;;;4843289;29;20062;-90
2021/03/12 11:32:16;;;;;;;;;;;;;;;;;;;;;
2021/03/12 11:39:00;;;;;;;10.88;2.10;;;;;;;;;;4878361;29;20064;-90
2021/03/12 11:41:46;;;;;;;6.05;1.85;;;;;;;;;;4838493;29;20060;-90
2021/03/12 11:44:15;;;;;;;7.93;3.17;;;;;;;;;;4825723;29;20061;-90
2021/03/12 11:46:47;;;;;;;10.43;2.38;;;;;;;;;;4840405;29;20053;-91
2021/03/12 11:49:34;;;;;;;3.08;2.10;;;;;;;;;;4840345;29;20045;-89
2021/03/12 11:52:07;;;;;;;4.47;1.60;;;;;;;;;;4842345;29;20053;-89
2021/03/12 11:54:41;;;;;;;8.80;3.45;;;;;;;;;;4843632;29;20052;-91
2021/03/12 12:09:40;;;;;;;;;;;;;;;;;;;;;
2021/03/12 12:13:00;;;;;;;5.57;1.70;;;;;;;;;;4811742;29;20058;-90
2021/03/12 12:19:08;;;;;;;8.07;2.20;;;;;;;;;;4858267;29;20038;-91
2021/03/12 12:30:31;;;;;;;3.42;1.98;;;10.30;99.90;;;;;;4875140;29;20046;-89
2021/03/12 12:33:21;;;;;;;4.80;1.77;;;;;;;;;;4842507;29;20053;-87
2021/03/12 12:35:52;;;;;;;4.50;1.67;;;;;;;;;;4837520;29;20049;-89
2021/03/12 12:38:50;;;;;;;2.60;2.08;;;10.10;99.90;;;;;;4806836;29;20049;-87
2021/03/12 12:41:27;;;;;;;6.63;2.28;;;;;;;;;;4837004;29;20061;-88
2021/03/12 12:43:55;;;;;;;;;;;10.10;99.90;;;;;;4840704;29;20053;-93
2021/03/12 12:46:23;;;;;;;11.73;3.38;;;;;;;;;;4838751;29;19938;-88
2021/03/12 12:48:53;;;;;;;7.45;3.08;;;;;;;;;;4821808;29;20068;-88
2021/03/12 12:51:24;;;;;;;8.43;3.70;;;;;;;;;;4827040;29;20049;-87
2021/03/12 12:53:52;;;;;;;5.03;1.77;;;;;;;;;;4836957;29;20046;-86
2021/03/12 12:56:20;;;;;;;12.18;2.72;;;;;;;;;;4853544;29;20071;-87
2021/03/12 12:58:51;;;;;;;10.63;3.38;;;10.20;99.90;;;;;;4861403;29;20053;-86
2021/03/12 13:01:26;;;;;;;11.93;2.47;;;;;;;;;;4860600;29;20065;-87
2021/03/12 13:03:59;;;;;;;13.25;2.40;;;;;;;;;;4857041;29;20068;-86
2021/03/12 13:06:27;;;;;;;7.07;3.58;;;;;;;;;;4808026;29;20058;-86
2021/03/12 13:09:04;;;;;;;23.15;5.15;;;;;;;;;;4830539;29;20041;-85
2021/03/12 13:11:33;;;;;;;10.55;2.08;;;;;;;;;;4831910;29;20076;-86
2021/03/12 13:14:05;;;;;;;7.55;2.55;;;;;;;;;;4840597;29;20056;-89
2021/03/12 13:16:37;;;;;;;10.27;3.65;;;;;;;;;;4845535;29;20058;-86
2021/03/12 13:19:33;;;;;;;9.40;2.30;;;10.70;99.90;;;;;;4852643;29;20064;-90
2021/03/12 13:22:03;;;;;;;6.93;1.75;;;10.70;99.90;;;;;;4826597;29;20053;-86
2021/03/12 13:24:31;;;;;;;10.88;4.38;;;;;;;;;;4803280;29;20056;-86
2021/03/12 13:26:59;;;;;;;6.80;2.83;;;;;;;;;;4841045;29;20054;-84
2021/03/12 13:29:27;;;;;;;10.38;3.10;;;;;;;;;;4820136;29;20054;-87
2021/03/12 13:31:57;;;;;;;6.03;3.38;;;;;;;;;;4835203;29;20466;-85
2021/03/12 13:34:28;;;;;;;10.18;1.85;;;;;;;;;;4840251;29;20092;-88
2021/03/12 13:37:00;;;;;;;6.32;2.50;;;;;;;;;;4847125;29;20049;-86
2021/03/12 13:39:28;;;;;;;2.75;1.92;;;;;;;;;;4835664;29;20040;-86
2021/03/12 13:42:25;;;;;;;10.38;2.33;;;;;;;;;;4836452;29;20046;-87
2021/03/12 13:44:54;;;;;;;4.63;2.47;;;;;;;;;;4486325;29;10000029;-87
2021/03/12 13:47:23;;;;;;;8.00;2.53;;;;;;;;;;4806076;29;20038;-85
2021/03/12 13:49:52;;;;;;;11.48;2.30;;;;;;;;;;4834129;29;20050;-87
2021/03/12 13:52:21;;;;;;;8.82;3.28;;;;;;;;;;4849334;29;20065;-86
2021/03/12 13:54:52;;;;;;;14.20;3.22;;;;;;;;;;4815535;29;20050;-84
2021/03/12 13:57:24;;;;;;;15.90;3.15;;;;;;;;;;4829147;29;20050;-85
2021/03/12 13:59:54;;;;;;;7.07;2.80;;;;;;;;;;4828807;29;20042;-85
2021/03/12 14:02:24;;;;;;;11.18;2.05;;;;;;;;;;4822378;29;20058;-85
2021/03/12 14:04:53;;;;;;;9.57;2.05;;;;;;;;;;4819012;29;20049;-88
2021/03/12 14:07:30;;;;;;;6.55;2.95;;;10.80;99.90;;;;;;4815225;29;20046;-88
2021/03/12 14:13:53;;;;;;;4.20;1.67;;;10.70;99.90;;;;;;5729021;23;20008;-88
2021/03/12 14:16:37;;;;;;;12.82;2.58;;;;;;;;;;4839601;29;20061;-88
2021/03/12 14:19:13;;;;;;;4.50;2.08;;;;;;;;;;4860753;29;20054;-89
2021/03/12 14:21:52;;;;;;;14.43;3.85;;;;;;;;;;4829716;29;20060;-89
2021/03/12 14:24:34;;;;;;;9.15;2.65;;;11.20;99.90;;;;;;4900376;23;20046;-90
2021/03/12 14:27:04;;;;;;;10.52;2.67;;;;;;;;;;4825629;29;20052;-89
2021/03/12 14:30:24;;;;;;;12.20;2.35;;;;;;;;;;4863681;29;20044;-90
2021/03/12 14:33:00;;;;;;;11.35;2.83;;;;;;;;;;4831466;29;20415;-89
2021/03/12 14:35:51;;;;;;;13.75;3.10;;;;;;;;;;4834714;29;20044;-90
2021/03/12 14:38:25;;;;;;;10.07;6.10;;;;;;;;;;4826120;29;20059;-91
2021/03/12 14:40:55;;;;;;;9.13;2.58;;;;;;;;;;4834330;29;20030;-90
2021/03/12 14:43:39;;;;;;;13.35;3.10;;;;;;;;;;4818724;29;20054;-92
2021/03/12 14:46:45;;;;;;;13.77;4.95;;;;;;;;;;4824020;29;20057;-91
2021/03/12 14:49:28;;;;;;;10.88;3.28;;;;;;;;;;4825745;29;20049;-88
2021/03/12 14:52:19;;;;;;;11.63;3.85;;;;;;;;;;4840741;29;20054;-91
2021/03/12 14:55:04;;;;;;;8.38;3.10;;;;;;;;;;4832978;29;20053;-91
2021/03/12 14:57:41;;;;;;;11.13;3.10;;;;;;;;;;4822363;29;20060;-90
2021/03/12 15:00:38;;;;;;;11.82;2.58;;;;;;;;;;4813357;29;20062;-92
2021/03/12 15:03:54;;;;;;;8.55;2.10;;;;;;;;;;4822705;29;20050;-91
2021/03/12 15:09:50;;;;;;;6.97;2.22;;;;;;;;;;4793242;29;20046;-92
2021/03/12 15:12:45;;;;;;;7.03;3.03;;;;;;;;;;4816138;29;20168;-91
2021/03/12 15:15:27;;;;;;;7.43;1.85;;;;;;;;;;4830536;29;20055;-91
2021/03/12 15:18:10;;;;;;;9.63;1.90;;;;;;;;;;4802169;29;20050;-88
2021/03/12 15:20:45;;;;;;;11.18;2.63;;;;;;;;;;4833063;29;20088;-92
2021/03/12 15:23:56;;;;;;;11.60;2.92;;;;;;;;;;4805063;29;20047;-94
2021/03/12 15:27:33;;;;;;;5.88;1.58;;;;;;;;;;4834833;29;20054;-90
2021/03/12 15:30:23;;;;;;;7.55;1.52;;;;;;;;;;4835645;23;20050;-93
2021/03/12 15:33:09;;;;;;;7.15;1.52;;;;;;;;;;4861824;29;20045;-91
2021/03/12 15:40:19;;;;;;;10.82;2.80;;;;;;;;;;4917892;23;20037;-92
2021/03/12 15:43:11;;;;;;;;;;;11.60;99.90;;;;;;4921314;24;20058;-92
2021/03/12 15:46:49;;;;;;;6.90;1.60;;;11.40;99.90;;;;;;4829986;29;19920;-88
2021/03/12 15:50:22;;;;;;;10.48;2.05;;;11.40;99.90;;;;;;5065770;23;20065;-90
2021/03/12 15:53:46;;;;;;;14.65;4.05;;;11.50;99.90;;;;;;4821181;29;20051;-90
2021/03/12 16:06:42;;;;;;;2.58;1.30;;;;;;;;;;4867922;29;20049;-92
2021/03/12 16:10:22;;;;;;;7.15;1.30;;;;;;;;;;4857086;29;20058;-93
2021/03/12 16:14:03;;;;;;;9.98;1.65;;;;;;;;;;4881738;29;20046;-92
2021/03/12 16:16:44;;;;;;;4.80;1.92;;;;;;;;;;4838997;29;20054;-90
2021/03/12 16:24:18;;;;;;;9.00;3.08;;;11.10;99.90;;;;;;4834758;29;20068;-91
2021/03/12 16:27:57;;;;;;;10.30;2.03;;;;;;;;;;4818660;29;20045;-89
2021/03/12 16:31:14;;;;;;;2.53;1.73;;;;;;;;;;4863134;29;20058;-90
2021/03/12 16:33:55;;;;;;;8.55;2.00;;;;;;;;;;4875038;23;20030;-91
2021/03/12 16:36:39;;;;;;;13.05;2.50;;;;;;;;;;4834283;29;20053;-90
2021/03/12 16:39:26;;;;;;;6.28;2.90;;;;;;;;;;4838948;29;20058;-86
2021/03/12 16:42:05;;;;;;;9.05;2.72;;;;;;;;;;4839177;29;20038;-89
2021/03/12 16:44:40;;;;;;;4.78;1.13;;;;;;;;;;4841200;29;20061;-88